createdAt,value
2023-04-19T00:00:57.960Z,11.00
2023-04-19T00:03:09.801Z,11.68
2023-04-19T00:05:18.750Z,11.27
2023-04-19T00:07:30.068Z,12.15
2023-04-19T00:09:40.883Z,12.05
2023-04-19T00:11:48.829Z,11.45
2023-04-19T00:13:56.807Z,11.13
2023-04-19T00:16:08.366Z,12.05
2023-04-19T00:18:19.343Z,11.15
2023-04-19T00:20:29.939Z,11.18
2023-04-19T00:22:38.063Z,11.50
2023-04-19T00:24:45.990Z,11.20
2023-04-19T00:26:53.957Z,11.45
2023-04-19T00:29:03.647Z,12.43
2023-04-19T00:31:14.613Z,11.07
2023-04-19T00:33:22.589Z,11.82
2023-04-19T00:35:30.672Z,12.45
2023-04-19T00:37:38.637Z,12.75
2023-04-19T00:39:46.751Z,12.07
2023-04-19T00:41:57.509Z,12.38
2023-04-19T00:44:06.538Z,11.40
2023-04-19T00:46:18.378Z,12.00
2023-04-19T00:48:26.643Z,12.80
2023-04-19T00:50:36.280Z,11.00
2023-04-19T00:52:44.832Z,12.13
2023-04-19T00:54:52.868Z,12.38
2023-04-19T00:57:02.341Z,10.93
2023-04-19T00:59:10.812Z,11.73
2023-04-19T01:01:21.428Z,10.60
2023-04-19T01:03:31.037Z,13.15
2023-04-19T01:05:39.612Z,12.10
2023-04-19T01:07:47.477Z,12.77
2023-04-19T01:09:55.603Z,13.73
2023-04-19T01:12:05.084Z,12.90
2023-04-19T01:14:13.379Z,13.20
2023-04-19T01:16:25.346Z,12.55
2023-04-19T01:18:37.671Z,12.20
2023-04-19T01:20:46.452Z,12.93
2023-04-19T01:22:57.393Z,12.05
2023-04-19T01:25:05.311Z,12.60
2023-04-19T01:27:14.402Z,11.70
2023-04-19T01:29:22.360Z,13.13
2023-04-19T01:31:30.300Z,13.30
2023-04-19T01:33:38.277Z,12.63
2023-04-19T01:35:50.546Z,11.88
2023-04-19T01:38:01.333Z,13.02
2023-04-19T01:40:10.459Z,11.95
2023-04-19T01:42:18.372Z,11.85
2023-04-19T01:44:27.256Z,12.07
2023-04-19T01:46:39.076Z,12.20
2023-04-19T01:48:47.135Z,12.75
2023-04-19T01:50:57.123Z,14.15
2023-04-19T01:53:08.031Z,12.90
2023-04-19T01:55:16.183Z,12.90
2023-04-19T01:57:24.204Z,12.88
2023-04-19T01:59:32.052Z,12.63
2023-04-19T02:01:39.920Z,13.43
2023-04-19T02:03:48.136Z,13.95
2023-04-19T02:05:56.238Z,12.65
2023-04-19T02:08:07.369Z,13.38
2023-04-19T02:10:15.572Z,12.38
2023-04-19T02:12:23.790Z,12.10
2023-04-19T02:14:32.183Z,12.82
2023-04-19T02:16:40.165Z,12.80
2023-04-19T02:18:48.507Z,13.05
2023-04-19T02:20:56.489Z,14.52
2023-04-19T02:23:08.757Z,14.00
2023-04-19T02:25:21.020Z,15.18
2023-04-19T02:27:29.420Z,13.95
2023-04-19T02:29:38.547Z,13.48
2023-04-19T02:31:46.872Z,14.05
2023-04-19T02:33:54.918Z,13.73
2023-04-19T02:36:03.345Z,15.48
2023-04-19T02:38:13.872Z,14.15
2023-04-19T02:40:23.171Z,13.98
2023-04-19T02:42:31.605Z,14.75
2023-04-19T02:44:39.780Z,13.43
2023-04-19T02:46:51.748Z,15.00
2023-04-19T02:48:59.744Z,14.07
2023-04-19T02:51:07.942Z,15.15
2023-04-19T02:53:23.081Z,13.30
2023-04-19T02:55:33.673Z,14.82
2023-04-19T02:57:47.823Z,16.25
2023-04-19T02:59:56.052Z,14.40
2023-04-19T03:02:04.705Z,13.75
2023-04-19T03:04:13.264Z,13.70
2023-04-19T03:06:21.982Z,14.90
2023-04-19T03:08:33.637Z,14.20
2023-04-19T03:10:43.180Z,13.95
2023-04-19T03:12:51.148Z,15.10
2023-04-19T03:15:02.456Z,13.63
2023-04-19T03:17:10.385Z,14.02
2023-04-19T03:19:18.633Z,14.55
2023-04-19T03:21:32.241Z,14.57
2023-04-19T03:23:42.847Z,14.70
2023-04-19T03:25:51.354Z,13.27
2023-04-19T03:28:06.743Z,13.40
2023-04-19T03:30:34.650Z,13.13
2023-04-19T03:32:42.771Z,14.52
2023-04-19T03:34:55.409Z,14.60
2023-04-19T03:37:03.673Z,14.18
2023-04-19T03:39:17.050Z,14.60
2023-04-19T03:41:30.166Z,13.85
2023-04-19T03:43:46.193Z,15.25
2023-04-19T03:45:54.356Z,15.02
2023-04-19T03:48:03.259Z,14.63
2023-04-19T03:50:13.066Z,15.75
2023-04-19T03:52:26.074Z,13.57
2023-04-19T03:54:36.550Z,14.90
2023-04-19T03:56:47.114Z,14.38
2023-04-19T03:58:55.854Z,15.23
2023-04-19T04:01:04.241Z,14.90
2023-04-19T04:03:12.727Z,16.55
2023-04-19T04:05:21.061Z,16.10
2023-04-19T04:07:29.668Z,15.70
2023-04-19T04:09:40.194Z,14.68
2023-04-19T04:11:48.149Z,15.98
2023-04-19T04:13:56.920Z,15.82
2023-04-19T04:16:09.185Z,15.70
2023-04-19T04:18:17.844Z,16.25
2023-04-19T04:20:27.778Z,16.15
2023-04-19T04:22:46.316Z,14.35
2023-04-19T04:24:59.778Z,15.75
2023-04-19T04:27:13.750Z,15.02
2023-04-19T04:29:23.002Z,16.20
2023-04-19T04:31:33.541Z,16.48
2023-04-19T04:33:42.098Z,15.77
2023-04-19T04:35:52.380Z,15.85
2023-04-19T04:38:11.106Z,16.98
2023-04-19T04:40:29.704Z,15.75
2023-04-19T04:42:37.981Z,14.30
2023-04-19T04:44:47.622Z,15.23
2023-04-19T04:46:59.872Z,15.73
2023-04-19T04:49:09.833Z,16.05
2023-04-19T04:51:18.189Z,14.02
2023-04-19T04:53:35.484Z,16.25
2023-04-19T04:56:14.993Z,16.20
2023-04-19T04:58:23.043Z,14.38
2023-04-19T05:00:53.203Z,16.08
2023-04-19T05:03:02.497Z,16.90
2023-04-19T05:05:13.772Z,16.05
2023-04-19T05:07:21.729Z,15.10
2023-04-19T05:09:30.334Z,17.52
2023-04-19T05:11:41.534Z,15.75
2023-04-19T05:13:49.813Z,15.60
2023-04-19T05:15:58.351Z,15.80
2023-04-19T05:18:06.379Z,14.82
2023-04-19T05:20:16.865Z,15.15
2023-04-19T05:22:26.578Z,15.88
2023-04-19T05:24:35.652Z,15.90
2023-04-19T05:26:48.220Z,15.65
2023-04-19T05:28:56.678Z,16.42
2023-04-19T05:31:31.949Z,14.85
2023-04-19T05:33:59.680Z,15.38
2023-04-19T05:36:09.035Z,15.55
2023-04-19T05:38:17.165Z,16.08
2023-04-19T05:40:26.425Z,14.90
2023-04-19T05:42:37.009Z,13.93
2023-04-19T05:44:46.452Z,14.65
2023-04-19T05:46:54.962Z,14.65
2023-04-19T05:49:26.491Z,15.43
2023-04-19T05:51:55.752Z,14.60
2023-04-19T05:54:36.100Z,14.65
2023-04-19T05:56:45.242Z,13.95
2023-04-19T05:58:56.516Z,15.13
2023-04-19T06:01:05.427Z,15.10
2023-04-19T06:03:14.917Z,16.48
2023-04-19T06:05:25.801Z,14.38
2023-04-19T06:07:37.787Z,13.68
2023-04-19T06:09:52.501Z,14.52
2023-04-19T06:12:02.653Z,15.50
2023-04-19T06:14:14.205Z,14.07
2023-04-19T06:16:22.800Z,14.70
2023-04-19T06:18:30.761Z,14.85
2023-04-19T06:20:39.515Z,14.63
2023-04-19T06:22:48.965Z,14.75
2023-04-19T06:24:56.818Z,14.57
2023-04-19T06:27:10.601Z,14.73
2023-04-19T06:29:21.991Z,13.50
2023-04-19T06:31:30.189Z,13.35
2023-04-19T06:33:40.251Z,13.73
2023-04-19T06:35:49.198Z,14.52
2023-04-19T06:37:59.894Z,14.25
2023-04-19T06:40:09.912Z,14.68
2023-04-19T06:42:20.324Z,13.98
2023-04-19T06:44:31.076Z,13.65
2023-04-19T06:46:39.148Z,15.13
2023-04-19T06:48:54.117Z,14.93
2023-04-19T06:51:01.875Z,12.80
2023-04-19T06:53:09.856Z,13.30
2023-04-19T06:55:18.285Z,15.02
2023-04-19T06:57:27.087Z,13.80
2023-04-19T06:59:40.036Z,13.05
2023-04-19T07:01:49.045Z,13.57
2023-04-19T07:03:57.855Z,13.60
2023-04-19T07:06:08.358Z,13.95
2023-04-19T07:08:16.477Z,12.00
2023-04-19T07:10:24.449Z,12.95
2023-04-19T07:12:32.763Z,12.55
2023-04-19T07:14:43.582Z,11.85
2023-04-19T07:16:53.894Z,13.10
2023-04-19T07:19:02.058Z,12.77
2023-04-19T07:21:10.005Z,14.93
2023-04-19T07:23:19.618Z,15.30
2023-04-19T07:25:27.707Z,15.35
2023-04-19T07:27:38.746Z,17.08
2023-04-19T07:29:50.605Z,14.10
2023-04-19T07:32:00.295Z,14.10
2023-04-19T07:34:08.208Z,15.57
2023-04-19T07:36:16.168Z,13.55
2023-04-19T07:38:25.485Z,13.23
2023-04-19T07:40:33.446Z,13.55
2023-04-19T07:42:41.451Z,13.35
2023-04-19T07:44:52.448Z,14.50
2023-04-19T07:47:01.200Z,13.93
2023-04-19T07:49:09.352Z,13.23
2023-04-19T07:51:20.653Z,12.63
2023-04-19T07:53:31.246Z,11.10
2023-04-19T07:55:39.384Z,11.85
2023-04-19T07:57:48.654Z,12.38
2023-04-19T08:00:02.102Z,11.57
2023-04-19T08:02:10.193Z,12.07
2023-04-19T08:04:20.954Z,11.55
2023-04-19T08:06:29.888Z,11.20
2023-04-19T08:08:37.979Z,11.63
2023-04-19T08:10:46.674Z,12.00
2023-04-19T08:13:05.345Z,11.88
2023-04-19T08:16:03.031Z,11.60
2023-04-19T08:17:47.023Z,11.43
2023-04-19T08:19:55.572Z,11.32
2023-04-19T08:22:04.674Z,11.55
2023-04-19T08:24:12.544Z,11.98
2023-04-19T08:26:20.373Z,11.48
2023-04-19T08:28:28.574Z,11.60
2023-04-19T08:30:39.121Z,12.88
2023-04-19T08:32:47.259Z,11.20
2023-04-19T08:34:55.228Z,10.93
2023-04-19T08:37:04.817Z,10.32
2023-04-19T08:39:24.427Z,10.02
2023-04-19T08:41:40.356Z,9.80
2023-04-19T08:43:50.821Z,9.90
2023-04-19T08:46:02.249Z,10.48
2023-04-19T08:48:12.938Z,9.20
2023-04-19T08:50:33.130Z,9.65
2023-04-19T08:52:54.279Z,10.00
2023-04-19T08:55:07.479Z,9.40
2023-04-19T08:57:18.216Z,9.20
2023-04-19T08:59:26.476Z,8.75
2023-04-19T09:01:37.237Z,10.50
2023-04-19T09:03:56.041Z,10.05
2023-04-19T09:06:09.681Z,10.32
2023-04-19T09:08:31.345Z,9.32
2023-04-19T09:10:39.347Z,10.30
2023-04-19T09:13:03.502Z,9.57
2023-04-19T09:15:12.968Z,10.05
2023-04-19T09:17:23.519Z,9.70
2023-04-19T09:19:48.825Z,10.45
2023-04-19T09:21:57.655Z,8.40
2023-04-19T09:24:06.388Z,9.40
2023-04-19T09:26:23.272Z,8.32
2023-04-19T09:28:32.485Z,9.55
2023-04-19T09:30:54.842Z,10.80
2023-04-19T09:33:11.616Z,9.70
2023-04-19T09:35:22.006Z,8.93
2023-04-19T09:37:51.579Z,9.50
2023-04-19T09:39:58.245Z,9.82
2023-04-19T09:42:07.325Z,10.00
2023-04-19T09:46:35.223Z,9.32
2023-04-19T09:48:46.118Z,10.27
2023-04-19T09:51:00.905Z,9.30
2023-04-19T09:53:13.839Z,9.90
2023-04-19T09:55:27.510Z,10.02
2023-04-19T09:57:37.377Z,8.93
2023-04-19T09:59:45.249Z,11.10
2023-04-19T10:02:05.266Z,9.20
2023-04-19T10:04:36.322Z,10.13
2023-04-19T10:07:13.963Z,9.60
2023-04-19T10:09:18.776Z,10.05
2023-04-19T10:11:34.026Z,10.73
2023-04-19T10:13:43.145Z,9.52
2023-04-19T10:15:57.063Z,9.25
2023-04-19T10:18:10.745Z,9.00
2023-04-19T10:20:27.335Z,9.30
2023-04-19T10:22:36.580Z,9.95
2023-04-19T10:25:15.739Z,10.48
2023-04-19T10:27:28.844Z,10.18
2023-04-19T10:29:58.236Z,9.73
2023-04-19T10:32:07.708Z,9.65
2023-04-19T10:34:16.456Z,10.45
2023-04-19T10:36:32.259Z,9.55
2023-04-19T10:38:43.549Z,12.10
2023-04-19T10:41:00.792Z,8.80
2023-04-19T10:43:19.105Z,9.38
2023-04-19T10:45:38.680Z,10.70
2023-04-19T10:47:47.675Z,10.38
2023-04-19T10:49:55.948Z,9.80
2023-04-19T10:52:06.648Z,9.95
2023-04-19T10:54:32.887Z,9.85
2023-04-19T10:57:04.806Z,10.75
2023-04-19T10:59:25.719Z,10.07
2023-04-19T11:01:38.357Z,10.02
2023-04-19T11:03:56.591Z,10.55
2023-04-19T11:06:27.838Z,9.52
2023-04-19T11:08:38.619Z,10.38
2023-04-19T11:10:47.748Z,9.68
2023-04-19T11:12:55.838Z,10.77
2023-04-19T11:15:04.691Z,10.65
2023-04-19T11:17:20.748Z,11.18
2023-04-19T11:19:29.058Z,10.93
2023-04-19T11:21:41.881Z,9.27
2023-04-19T11:23:54.087Z,9.90
2023-04-19T11:26:02.092Z,9.82
2023-04-19T11:28:10.774Z,11.10
2023-04-19T11:30:21.819Z,10.85
2023-04-19T11:32:29.770Z,11.38
2023-04-19T11:34:41.843Z,10.40
2023-04-19T11:36:54.528Z,10.52
2023-04-19T11:39:05.077Z,10.95
2023-04-19T11:41:13.298Z,10.43
2023-04-19T11:43:21.461Z,10.75
2023-04-19T11:45:33.192Z,12.02
2023-04-19T11:47:53.677Z,11.52
2023-04-19T11:50:35.561Z,12.52
2023-04-19T11:52:43.456Z,10.32
2023-04-19T11:54:54.970Z,12.10
2023-04-19T11:57:06.995Z,11.52
2023-04-19T11:59:14.798Z,11.05
2023-04-19T12:01:25.427Z,12.77
2023-04-19T12:03:33.826Z,11.18
2023-04-19T12:05:42.505Z,13.73
2023-04-19T12:08:04.875Z,14.13
2023-04-19T12:10:16.374Z,16.77
2023-04-19T12:12:35.530Z,14.55
2023-04-19T12:14:55.100Z,13.88
2023-04-19T12:17:11.969Z,14.43
2023-04-19T12:19:21.619Z,16.48
2023-04-19T12:21:31.904Z,16.70
2023-04-19T12:23:39.897Z,16.90
2023-04-19T12:25:55.758Z,16.63
2023-04-19T12:28:05.780Z,16.20
2023-04-19T12:30:13.929Z,16.63
2023-04-19T12:32:23.173Z,16.02
2023-04-19T12:34:31.454Z,18.45
2023-04-19T12:36:39.268Z,17.67
2023-04-19T12:38:47.290Z,17.33
2023-04-19T12:40:57.873Z,17.60
2023-04-19T12:43:08.887Z,19.38
2023-04-19T12:45:17.416Z,18.92
2023-04-19T12:47:25.953Z,17.98
2023-04-19T12:49:34.335Z,18.77
2023-04-19T12:51:42.901Z,19.35
2023-04-19T12:53:52.003Z,20.15
2023-04-19T12:56:02.960Z,18.67
2023-04-19T12:58:11.394Z,19.30
2023-04-19T13:00:20.316Z,21.33
2023-04-19T13:02:28.351Z,21.58
2023-04-19T13:04:36.780Z,21.13
2023-04-19T13:06:46.143Z,20.67
2023-04-19T13:08:54.962Z,20.63
2023-04-19T13:11:06.473Z,20.60
2023-04-19T13:13:14.370Z,20.13
2023-04-19T13:15:22.413Z,19.60
2023-04-19T13:17:30.642Z,20.90
2023-04-19T13:19:38.785Z,19.25
2023-04-19T13:21:47.291Z,18.88
2023-04-19T13:23:55.248Z,19.83
2023-04-19T13:26:05.886Z,19.00
2023-04-19T13:28:13.815Z,19.75
2023-04-19T13:30:22.092Z,18.80
2023-04-19T13:32:30.147Z,18.58
2023-04-19T13:34:38.317Z,19.65
2023-04-19T13:36:46.555Z,18.98
2023-04-19T13:38:54.405Z,16.60
2023-04-19T13:41:05.848Z,19.38
2023-04-19T13:43:13.811Z,19.38
2023-04-19T13:45:21.778Z,17.40
2023-04-19T13:47:29.784Z,18.92
2023-04-19T13:49:37.783Z,17.00
2023-04-19T13:51:50.190Z,17.48
2023-04-19T13:53:59.007Z,17.42
2023-04-19T13:56:11.196Z,17.30
2023-04-19T13:58:19.649Z,17.75
2023-04-19T14:00:28.124Z,18.33
2023-04-19T14:02:36.783Z,16.38
2023-04-19T14:04:44.740Z,17.35
2023-04-19T14:06:52.881Z,18.10
2023-04-19T14:09:01.386Z,16.92
2023-04-19T14:11:11.925Z,16.58
2023-04-19T14:13:19.873Z,14.85
2023-04-19T14:15:30.695Z,15.80
2023-04-19T14:17:38.823Z,16.00
2023-04-19T14:19:47.607Z,16.45
2023-04-19T14:21:55.556Z,16.52
2023-04-19T14:24:03.914Z,16.00
2023-04-19T14:26:14.557Z,16.00
2023-04-19T14:28:22.822Z,18.95
2023-04-19T14:30:31.302Z,18.83
2023-04-19T14:32:39.771Z,16.88
2023-04-19T14:34:47.935Z,15.60
2023-04-19T14:36:56.158Z,16.75
2023-04-19T14:39:04.113Z,16.63
2023-04-19T14:41:14.616Z,15.30
2023-04-19T14:43:22.654Z,14.77
2023-04-19T14:45:30.760Z,13.88
2023-04-19T14:47:38.828Z,15.60
2023-04-19T14:49:46.661Z,14.55
2023-04-19T14:51:55.236Z,13.40
2023-04-19T14:54:03.143Z,13.80
2023-04-19T14:56:15.164Z,13.15
2023-04-19T14:58:23.087Z,13.15
2023-04-19T15:00:31.051Z,13.02
2023-04-19T15:02:39.216Z,13.35
2023-04-19T15:04:48.176Z,13.75
2023-04-19T15:06:56.244Z,13.27
2023-04-19T15:09:04.278Z,13.45
2023-04-19T15:11:14.883Z,12.95
2023-04-19T15:13:23.011Z,13.23
2023-04-19T15:15:30.998Z,13.00
2023-04-19T15:17:39.333Z,13.10
2023-04-19T15:19:47.296Z,13.60
2023-04-19T15:21:55.420Z,13.50
2023-04-19T15:24:03.988Z,13.85
2023-04-19T15:26:14.457Z,13.75
2023-04-19T15:28:23.016Z,14.32
2023-04-19T15:30:30.981Z,13.27
2023-04-19T15:32:39.002Z,14.52
2023-04-19T15:34:47.449Z,15.35
2023-04-19T15:36:57.632Z,15.00
2023-04-19T15:39:05.561Z,15.98
2023-04-19T15:41:16.920Z,15.75
2023-04-19T15:43:25.468Z,15.63
2023-04-19T15:45:33.490Z,15.15
2023-04-19T15:47:41.840Z,14.52
2023-04-19T15:49:53.001Z,16.40
2023-04-19T15:52:01.446Z,14.82
2023-04-19T15:54:09.419Z,15.15
2023-04-19T15:56:19.985Z,13.82
2023-04-19T15:58:28.327Z,14.70
2023-04-19T16:00:36.739Z,13.98
2023-04-19T16:02:45.246Z,13.05
2023-04-19T16:04:53.813Z,14.93
2023-04-19T16:07:02.691Z,15.55
2023-04-19T16:09:11.110Z,14.52
2023-04-19T16:11:22.025Z,14.70
2023-04-19T16:13:31.482Z,14.60
2023-04-19T16:15:39.650Z,13.55
2023-04-19T16:17:48.944Z,14.13
2023-04-19T16:19:57.070Z,13.02
2023-04-19T16:22:05.742Z,13.05
2023-04-19T16:24:13.861Z,13.43
2023-04-19T16:26:25.023Z,13.88
2023-04-19T16:28:33.212Z,12.48
2023-04-19T16:30:41.358Z,14.05
2023-04-19T16:32:49.672Z,14.57
2023-04-19T16:34:57.548Z,13.52
2023-04-19T16:37:06.779Z,14.90
2023-04-19T16:39:15.188Z,13.80
2023-04-19T16:41:27.395Z,14.27
2023-04-19T16:43:35.736Z,14.20
2023-04-19T16:45:44.429Z,14.82
2023-04-19T16:47:54.062Z,13.05
2023-04-19T16:50:04.101Z,13.60
2023-04-19T16:52:12.368Z,13.13
2023-04-19T16:54:21.348Z,15.45
2023-04-19T16:56:31.935Z,15.02
2023-04-19T16:58:39.961Z,16.45
2023-04-19T17:00:48.653Z,14.13
2023-04-19T17:02:56.961Z,15.45
2023-04-19T17:05:05.238Z,15.45
2023-04-19T17:07:13.316Z,15.20
2023-04-19T17:09:21.219Z,14.98
2023-04-19T17:11:32.818Z,15.00
2023-04-19T17:13:40.757Z,14.93
2023-04-19T17:15:49.005Z,12.65
2023-04-19T17:17:57.418Z,13.80
2023-04-19T17:20:06.433Z,15.52
2023-04-19T17:22:14.662Z,14.63
2023-04-19T17:24:24.273Z,15.25
2023-04-19T17:26:34.799Z,13.95
2023-04-19T17:28:42.711Z,14.45
2023-04-19T17:30:51.172Z,14.40
2023-04-19T17:32:59.605Z,15.15
2023-04-19T17:35:08.458Z,15.80
2023-04-19T17:37:16.599Z,14.63
2023-04-19T17:39:29.116Z,15.05
2023-04-19T17:41:39.773Z,15.07
2023-04-19T17:43:48.895Z,14.48
2023-04-19T17:45:58.175Z,14.63
2023-04-19T17:48:11.883Z,16.30
2023-04-19T17:50:20.915Z,14.65
2023-04-19T17:52:28.820Z,14.82
2023-04-19T17:54:36.954Z,16.73
2023-04-19T17:56:47.959Z,15.07
2023-04-19T17:58:56.026Z,15.00
2023-04-19T18:01:04.378Z,14.60
2023-04-19T18:03:13.773Z,14.20
2023-04-19T18:05:22.425Z,14.90
2023-04-19T18:07:30.393Z,15.48
2023-04-19T18:09:38.419Z,15.13
2023-04-19T18:11:51.932Z,16.40
2023-04-19T18:14:02.545Z,15.55
2023-04-19T18:16:11.415Z,15.70
2023-04-19T18:18:20.974Z,16.38
2023-04-19T18:20:29.122Z,17.52
2023-04-19T18:22:39.331Z,17.02
2023-04-19T18:24:51.671Z,17.33
2023-04-19T18:27:03.031Z,16.50
2023-04-19T18:29:12.477Z,14.35
2023-04-19T18:31:20.687Z,13.45
2023-04-19T18:33:30.549Z,13.18
2023-04-19T18:35:39.145Z,12.18
2023-04-19T18:37:47.425Z,12.52
2023-04-19T18:39:55.292Z,15.05
2023-04-19T18:42:05.835Z,13.48
2023-04-19T18:44:38.891Z,12.90
2023-04-19T18:46:41.873Z,10.55
2023-04-19T18:48:50.187Z,8.80
2023-04-19T18:50:59.459Z,4.32
2023-04-19T18:53:10.351Z,6.13
2023-04-19T18:55:18.498Z,6.30
2023-04-19T18:57:33.343Z,4.80
2023-04-19T18:59:43.486Z,4.80
2023-04-19T19:01:52.216Z,4.47
2023-04-19T19:06:14.992Z,5.47
2023-04-19T19:08:23.570Z,5.05
2023-04-19T19:10:48.519Z,5.10
2023-04-19T19:13:02.210Z,4.45
2023-04-19T19:15:11.638Z,4.82
2023-04-19T19:17:20.261Z,4.80
2023-04-19T19:19:28.431Z,4.68
2023-04-19T19:21:36.648Z,4.00
2023-04-19T19:23:44.864Z,4.80
2023-04-19T19:25:52.994Z,4.18
2023-04-19T19:28:08.241Z,4.60
2023-04-19T19:30:18.477Z,4.40
2023-04-19T19:32:26.374Z,4.82
2023-04-19T19:34:47.079Z,4.55
2023-04-19T19:37:02.398Z,4.70
2023-04-19T19:39:11.005Z,4.13
2023-04-19T19:43:32.411Z,4.53
2023-04-19T19:45:42.296Z,4.22
2023-04-19T19:47:50.644Z,3.85
2023-04-19T19:52:09.437Z,5.15
2023-04-19T19:54:17.484Z,4.70
2023-04-19T19:56:25.379Z,4.53
2023-04-19T19:58:49.607Z,4.38
2023-04-19T20:00:58.546Z,4.60
2023-04-19T20:03:36.182Z,5.15
2023-04-19T20:05:47.192Z,4.75
2023-04-19T20:08:13.737Z,4.18
2023-04-19T20:10:21.984Z,5.47
2023-04-19T20:12:35.337Z,4.28
2023-04-19T20:14:46.125Z,5.60
2023-04-19T20:16:55.865Z,5.20
2023-04-19T20:19:09.841Z,4.60
2023-04-19T20:21:20.742Z,4.78
2023-04-19T20:23:29.022Z,5.53
2023-04-19T20:25:38.780Z,4.80
2023-04-19T20:27:46.973Z,5.40
2023-04-19T20:29:57.436Z,5.72
2023-04-19T20:32:08.485Z,4.68
2023-04-19T20:34:17.204Z,4.80
2023-04-19T20:36:27.755Z,5.05
2023-04-19T20:38:36.008Z,5.40
2023-04-19T20:40:44.613Z,4.85
2023-04-19T20:42:52.647Z,4.80
2023-04-19T20:45:05.022Z,4.63
2023-04-19T20:47:13.368Z,4.82
2023-04-19T20:49:21.632Z,4.35
2023-04-19T20:51:29.478Z,5.05
2023-04-19T20:53:38.004Z,4.20
2023-04-19T20:55:46.514Z,4.65
2023-04-19T20:57:54.782Z,4.93
2023-04-19T21:00:05.758Z,5.00
2023-04-19T21:02:13.755Z,5.15
2023-04-19T21:04:22.009Z,5.32
2023-04-19T21:06:31.581Z,5.95
2023-04-19T21:08:39.476Z,5.45
2023-04-19T21:10:47.604Z,5.20
2023-04-19T21:12:55.595Z,5.38
2023-04-19T21:15:07.278Z,4.30
2023-04-19T21:17:15.385Z,5.47
2023-04-19T21:19:23.490Z,4.95
2023-04-19T21:21:32.513Z,5.45
2023-04-19T21:23:40.884Z,6.10
2023-04-19T21:25:48.903Z,5.40
2023-04-19T21:27:56.918Z,5.97
2023-04-19T21:30:08.310Z,5.20
2023-04-19T21:32:16.302Z,5.22
2023-04-19T21:34:26.778Z,5.93
2023-04-19T21:36:34.830Z,5.70
2023-04-19T21:38:42.752Z,5.32
2023-04-19T21:40:52.104Z,5.10
2023-04-19T21:43:02.496Z,4.72
2023-04-19T21:45:14.405Z,5.97
2023-04-19T21:47:24.162Z,5.55
2023-04-19T21:49:32.205Z,5.55
2023-04-19T21:51:40.285Z,6.03
2023-04-19T21:53:48.415Z,5.28
2023-04-19T21:55:56.611Z,5.65
2023-04-19T21:58:05.320Z,5.75
2023-04-19T22:00:17.047Z,5.03
2023-04-19T22:02:25.300Z,5.55
2023-04-19T22:04:33.759Z,6.05
2023-04-19T22:06:44.339Z,5.70
2023-04-19T22:08:52.552Z,5.90
2023-04-19T22:11:01.383Z,5.95
2023-04-19T22:13:10.331Z,5.38
2023-04-19T22:15:22.602Z,5.95
2023-04-19T22:17:32.527Z,6.40
2023-04-19T22:19:42.244Z,6.47
2023-04-19T22:21:53.576Z,5.93
2023-04-19T22:24:01.772Z,5.60
2023-04-19T22:26:09.852Z,5.32
2023-04-19T22:28:20.062Z,6.10
2023-04-19T22:30:32.488Z,5.78
2023-04-19T22:32:40.708Z,5.45
2023-04-19T22:34:50.815Z,6.22
2023-04-19T22:36:59.513Z,5.30
2023-04-19T22:39:08.035Z,5.65
2023-04-19T22:41:16.217Z,5.28
2023-04-19T22:43:24.710Z,6.40
2023-04-19T22:45:35.252Z,5.05
2023-04-19T22:47:43.277Z,5.43
2023-04-19T22:49:51.185Z,5.75
2023-04-19T22:51:59.905Z,5.32
2023-04-19T22:54:08.103Z,5.32
2023-04-19T22:56:17.962Z,5.40
2023-04-19T22:58:25.792Z,4.70
2023-04-19T23:00:36.378Z,6.07
2023-04-19T23:02:44.809Z,6.53
2023-04-19T23:04:53.292Z,5.40
2023-04-19T23:07:02.274Z,6.47
2023-04-19T23:09:11.129Z,6.47
2023-04-19T23:11:19.093Z,5.72
2023-04-19T23:13:26.923Z,5.25
2023-04-19T23:15:37.852Z,5.93
2023-04-19T23:17:45.879Z,5.60
2023-04-19T23:19:54.062Z,5.85
2023-04-19T23:22:01.945Z,5.97
2023-04-19T23:24:11.359Z,5.90
2023-04-19T23:26:19.486Z,6.05
2023-04-19T23:28:27.819Z,6.05
2023-04-19T23:30:38.876Z,5.40
2023-04-19T23:32:46.924Z,6.30
2023-04-19T23:34:55.076Z,5.60
2023-04-19T23:37:03.210Z,5.55
2023-04-19T23:39:12.771Z,6.18
2023-04-19T23:41:21.053Z,5.43
2023-04-19T23:43:28.981Z,6.50
2023-04-19T23:45:39.702Z,6.10
2023-04-19T23:47:47.637Z,6.20
2023-04-19T23:49:55.736Z,6.20
2023-04-19T23:52:03.963Z,5.95
2023-04-19T23:54:11.957Z,6.47
2023-04-19T23:56:19.851Z,6.40
2023-04-19T23:58:29.009Z,6.65
